createdAt,value
2017-10-31T00:00:57.896Z,68.33
2017-10-31T00:01:58.505Z,68.43
2017-10-31T00:02:59.106Z,68.24
2017-10-31T00:03:59.723Z,68.24
2017-10-31T00:05:00.321Z,68.90
2017-10-31T00:06:00.927Z,68.62
2017-10-31T00:07:01.537Z,68.71
2017-10-31T00:08:02.143Z,68.62
2017-10-31T00:09:02.796Z,68.52
2017-10-31T00:10:03.398Z,68.43
2017-10-31T00:11:04.001Z,68.62
2017-10-31T00:12:04.607Z,68.62
2017-10-31T00:13:05.216Z,68.62
2017-10-31T00:14:05.824Z,68.52
2017-10-31T00:15:06.429Z,69.00
2017-10-31T00:16:07.041Z,69.09
2017-10-31T00:17:07.645Z,69.28
2017-10-31T00:18:08.248Z,69.28
2017-10-31T00:19:08.854Z,68.96
2017-10-31T00:20:09.458Z,69.19
2017-10-31T00:21:10.074Z,69.06
2017-10-31T00:22:10.680Z,69.09
2017-10-31T00:23:11.292Z,69.25
2017-10-31T00:24:11.900Z,69.44
2017-10-31T00:25:12.501Z,69.34
2017-10-31T00:26:13.107Z,69.63
2017-10-31T00:27:13.712Z,69.72
2017-10-31T00:28:14.322Z,69.47
2017-10-31T00:29:14.923Z,69.57
2017-10-31T00:30:15.530Z,69.95
2017-10-31T00:31:16.141Z,69.28
2017-10-31T00:32:16.743Z,69.19
2017-10-31T00:33:17.349Z,69.28
2017-10-31T00:34:17.953Z,69.28
2017-10-31T00:35:18.591Z,69.57
2017-10-31T00:36:19.196Z,69.28
2017-10-31T00:37:19.806Z,69.00
2017-10-31T00:38:20.407Z,69.47
2017-10-31T00:39:21.018Z,69.47
2017-10-31T00:40:21.649Z,69.57
2017-10-31T00:41:22.259Z,69.00
2017-10-31T00:42:22.862Z,69.09
2017-10-31T00:43:23.501Z,69.44
2017-10-31T00:44:24.101Z,69.34
2017-10-31T00:45:24.707Z,69.15
2017-10-31T00:46:25.310Z,69.63
2017-10-31T00:47:25.916Z,69.53
2017-10-31T00:48:26.553Z,69.63
2017-10-31T00:49:27.158Z,69.44
2017-10-31T00:50:27.766Z,68.87
2017-10-31T00:51:28.370Z,68.96
2017-10-31T00:52:28.975Z,69.06
2017-10-31T00:53:29.609Z,69.63
2017-10-31T00:54:30.223Z,70.01
2017-10-31T00:55:30.863Z,69.44
2017-10-31T00:56:31.466Z,69.53
2017-10-31T00:57:32.075Z,70.01
2017-10-31T00:58:32.677Z,69.82
2017-10-31T00:59:33.286Z,69.53
2017-10-31T01:00:33.939Z,69.34
2017-10-31T01:01:34.547Z,69.72
2017-10-31T01:02:35.181Z,69.82
2017-10-31T01:03:35.787Z,69.72
2017-10-31T01:04:36.390Z,70.39
2017-10-31T01:05:36.995Z,70.10
2017-10-31T01:06:37.599Z,70.01
2017-10-31T01:07:38.204Z,69.82
2017-10-31T01:08:38.813Z,69.72
2017-10-31T01:09:39.415Z,70.10
2017-10-31T01:10:40.026Z,70.01
2017-10-31T01:11:40.627Z,70.48
2017-10-31T01:12:41.230Z,70.39
2017-10-31T01:13:41.836Z,70.67
2017-10-31T01:14:42.442Z,70.39
2017-10-31T01:15:43.048Z,70.67
2017-10-31T01:16:43.653Z,70.57
2017-10-31T01:17:44.289Z,70.67
2017-10-31T01:18:44.899Z,70.57
2017-10-31T01:19:45.501Z,70.57
2017-10-31T01:20:46.135Z,70.57
2017-10-31T01:21:46.741Z,70.67
2017-10-31T01:22:47.347Z,70.67
2017-10-31T01:23:47.949Z,70.95
2017-10-31T01:24:48.558Z,71.23
2017-10-31T01:25:49.160Z,70.95
2017-10-31T01:26:49.765Z,71.14
2017-10-31T01:27:50.397Z,71.14
2017-10-31T01:28:51.008Z,71.23
2017-10-31T01:29:51.614Z,70.76
2017-10-31T01:30:52.219Z,71.23
2017-10-31T01:31:52.820Z,71.14
2017-10-31T01:32:53.423Z,71.14
2017-10-31T01:33:54.032Z,71.23
2017-10-31T01:34:54.632Z,71.14
2017-10-31T01:35:55.244Z,71.14
2017-10-31T01:36:55.847Z,71.23
2017-10-31T01:37:56.456Z,71.23
2017-10-31T01:38:57.062Z,71.23
2017-10-31T01:39:57.671Z,71.23
2017-10-31T01:40:58.278Z,71.33
2017-10-31T01:41:58.873Z,71.23
2017-10-31T01:42:59.478Z,71.04
2017-10-31T01:44:00.083Z,71.14
2017-10-31T01:45:00.689Z,71.33
2017-10-31T01:46:01.322Z,70.76
2017-10-31T01:47:01.931Z,70.76
2017-10-31T01:48:02.532Z,70.67
2017-10-31T01:49:03.134Z,71.23
2017-10-31T01:50:03.746Z,71.04
2017-10-31T01:51:04.348Z,71.14
2017-10-31T01:52:04.952Z,71.33
2017-10-31T01:53:05.590Z,71.04
2017-10-31T01:54:06.226Z,71.14
2017-10-31T01:55:06.829Z,71.23
2017-10-31T01:56:07.433Z,71.23
2017-10-31T01:57:08.044Z,71.23
2017-10-31T01:58:08.647Z,70.95
2017-10-31T01:59:09.255Z,71.52
2017-10-31T02:00:09.857Z,70.95
2017-10-31T02:01:10.462Z,70.86
2017-10-31T02:02:11.071Z,70.95
2017-10-31T02:03:11.672Z,71.04
2017-10-31T02:04:12.274Z,71.52
2017-10-31T02:05:12.879Z,71.52
2017-10-31T02:06:13.487Z,70.95
2017-10-31T02:07:14.093Z,71.04
2017-10-31T02:08:14.696Z,71.23
2017-10-31T02:09:15.303Z,70.95
2017-10-31T02:10:15.942Z,70.95
2017-10-31T02:11:16.578Z,71.14
2017-10-31T02:12:17.183Z,71.14
2017-10-31T02:13:17.794Z,71.14
2017-10-31T02:14:18.395Z,71.14
2017-10-31T02:15:19.029Z,71.33
2017-10-31T02:16:19.640Z,71.23
2017-10-31T02:17:20.273Z,71.14
2017-10-31T02:18:20.909Z,71.23
2017-10-31T02:19:21.517Z,71.61
2017-10-31T02:20:22.121Z,71.80
2017-10-31T02:21:22.728Z,70.95
2017-10-31T02:22:23.334Z,71.23
2017-10-31T02:23:23.937Z,71.71
2017-10-31T02:24:24.552Z,71.71
2017-10-31T02:25:25.147Z,71.23
2017-10-31T02:26:25.752Z,71.71
2017-10-31T02:27:26.357Z,71.71
2017-10-31T02:28:26.995Z,71.71
2017-10-31T02:29:27.594Z,71.80
2017-10-31T02:30:28.204Z,71.80
2017-10-31T02:31:28.808Z,71.71
2017-10-31T02:32:29.410Z,71.80
2017-10-31T02:33:30.013Z,71.33
2017-10-31T02:34:30.617Z,71.33
2017-10-31T02:35:31.228Z,71.14
2017-10-31T02:36:31.827Z,70.95
2017-10-31T02:37:32.433Z,71.52
2017-10-31T02:38:33.039Z,71.52
2017-10-31T02:39:33.642Z,71.33
2017-10-31T02:40:34.284Z,70.95
2017-10-31T02:41:34.895Z,71.33
2017-10-31T02:42:35.492Z,71.33
2017-10-31T02:43:36.096Z,71.23
2017-10-31T02:44:36.701Z,71.33
2017-10-31T02:45:37.311Z,71.14
2017-10-31T02:46:37.911Z,71.23
2017-10-31T02:47:38.515Z,71.42
2017-10-31T02:48:39.124Z,71.23
2017-10-31T02:49:39.724Z,71.42
2017-10-31T02:50:40.330Z,70.95
2017-10-31T02:51:40.940Z,70.95
2017-10-31T02:52:41.543Z,71.04
2017-10-31T02:53:42.156Z,70.95
2017-10-31T02:54:42.759Z,71.33
2017-10-31T02:55:43.361Z,71.23
2017-10-31T02:56:43.992Z,71.04
2017-10-31T02:57:44.597Z,71.23
2017-10-31T02:58:45.201Z,71.61
2017-10-31T02:59:45.809Z,71.52
2017-10-31T03:00:46.418Z,71.71
2017-10-31T03:01:47.045Z,71.14
2017-10-31T03:02:47.628Z,71.42
2017-10-31T03:03:48.230Z,70.95
2017-10-31T03:04:48.832Z,71.14
2017-10-31T03:05:49.440Z,71.23
2017-10-31T03:06:50.046Z,71.61
2017-10-31T03:07:50.657Z,71.14
2017-10-31T03:08:51.263Z,71.23
2017-10-31T03:09:51.869Z,71.33
2017-10-31T03:10:52.500Z,71.33
2017-10-31T03:11:53.104Z,71.14
2017-10-31T03:12:53.740Z,71.33
2017-10-31T03:13:54.345Z,71.14
2017-10-31T03:14:54.948Z,71.52
2017-10-31T03:15:55.559Z,71.14
2017-10-31T03:16:56.161Z,71.23
2017-10-31T03:17:56.765Z,71.04
2017-10-31T03:18:57.374Z,71.23
2017-10-31T03:19:57.976Z,70.67
2017-10-31T03:20:58.585Z,70.48
2017-10-31T03:21:59.188Z,70.48
2017-10-31T03:22:59.797Z,70.39
2017-10-31T03:24:00.403Z,70.48
2017-10-31T03:25:01.012Z,70.57
2017-10-31T03:26:01.615Z,70.48
2017-10-31T03:27:02.225Z,70.57
2017-10-31T03:28:02.827Z,70.76
2017-10-31T03:29:03.431Z,70.76
2017-10-31T03:30:04.036Z,70.67
2017-10-31T03:31:04.642Z,70.86
2017-10-31T03:32:05.251Z,70.39
2017-10-31T03:33:05.855Z,70.67
2017-10-31T03:34:06.511Z,70.76
2017-10-31T03:35:07.102Z,70.67
2017-10-31T03:36:07.745Z,70.86
2017-10-31T03:37:08.346Z,70.57
2017-10-31T03:38:08.950Z,70.57
2017-10-31T03:39:09.555Z,70.67
2017-10-31T03:40:10.158Z,70.48
2017-10-31T03:41:10.768Z,70.86
2017-10-31T03:42:11.375Z,70.48
2017-10-31T03:43:11.975Z,70.76
2017-10-31T03:44:12.585Z,70.57
2017-10-31T03:45:13.192Z,70.67
2017-10-31T03:46:13.802Z,70.76
2017-10-31T03:47:14.402Z,70.39
2017-10-31T03:48:15.003Z,70.57
2017-10-31T03:49:15.608Z,70.39
2017-10-31T03:50:16.220Z,70.39
2017-10-31T03:51:16.815Z,70.48
2017-10-31T03:52:17.424Z,70.76
2017-10-31T03:53:18.034Z,70.67
2017-10-31T03:54:18.632Z,70.29
2017-10-31T03:55:19.241Z,70.29
2017-10-31T03:56:19.842Z,70.39
2017-10-31T03:57:20.449Z,69.91
2017-10-31T03:58:21.053Z,69.72
2017-10-31T03:59:21.689Z,69.91
2017-10-31T04:00:22.301Z,69.72
2017-10-31T04:01:22.901Z,70.10
2017-10-31T04:02:23.511Z,69.82
2017-10-31T04:03:24.112Z,70.10
2017-10-31T04:04:24.726Z,70.20
2017-10-31T04:05:25.322Z,70.10
2017-10-31T04:06:25.926Z,70.10
2017-10-31T04:07:26.530Z,70.10
2017-10-31T04:08:27.135Z,69.53
2017-10-31T04:09:27.739Z,69.63
2017-10-31T04:10:28.349Z,70.10
2017-10-31T04:11:28.951Z,69.91
2017-10-31T04:12:29.562Z,69.34
2017-10-31T04:13:30.162Z,69.44
2017-10-31T04:14:30.766Z,69.31
2017-10-31T04:15:31.369Z,69.63
2017-10-31T04:16:31.973Z,69.59
2017-10-31T04:17:32.578Z,69.87
2017-10-31T04:18:33.183Z,69.78
2017-10-31T04:19:33.797Z,70.16
2017-10-31T04:20:34.392Z,70.35
2017-10-31T04:21:34.997Z,70.54
2017-10-31T04:22:35.600Z,70.44
2017-10-31T04:23:36.206Z,71.01
2017-10-31T04:24:36.841Z,70.35
2017-10-31T04:25:37.444Z,70.44
2017-10-31T04:26:38.045Z,70.63
2017-10-31T04:27:38.652Z,70.73
2017-10-31T04:28:39.261Z,70.63
2017-10-31T04:29:39.862Z,69.87
2017-10-31T04:30:40.467Z,70.39
2017-10-31T04:31:41.079Z,70.25
2017-10-31T04:32:41.676Z,70.25
2017-10-31T04:33:42.281Z,70.39
2017-10-31T04:34:42.890Z,70.25
2017-10-31T04:35:43.492Z,70.39
2017-10-31T04:36:44.095Z,70.35
2017-10-31T04:37:44.703Z,70.35
2017-10-31T04:38:45.310Z,70.35
2017-10-31T04:39:45.913Z,70.35
2017-10-31T04:40:46.518Z,70.25
2017-10-31T04:41:47.121Z,69.97
2017-10-31T04:42:47.722Z,70.16
2017-10-31T04:43:48.358Z,69.68
2017-10-31T04:44:48.991Z,69.59
2017-10-31T04:45:49.595Z,69.87
2017-10-31T04:46:50.208Z,69.87
2017-10-31T04:47:50.842Z,69.87
2017-10-31T04:48:51.448Z,69.78
2017-10-31T04:49:52.058Z,69.97
2017-10-31T04:50:52.661Z,70.06
2017-10-31T04:51:53.268Z,70.06
2017-10-31T04:52:53.876Z,70.16
2017-10-31T04:53:54.477Z,70.06
2017-10-31T04:54:55.108Z,69.97
2017-10-31T04:55:55.745Z,70.06
2017-10-31T04:56:56.354Z,69.97
2017-10-31T04:57:56.955Z,69.68
2017-10-31T04:58:57.592Z,70.16
2017-10-31T04:59:58.204Z,70.06
2017-10-31T05:00:58.832Z,69.49
2017-10-31T05:01:59.441Z,70.06
2017-10-31T05:03:00.043Z,69.78
2017-10-31T05:04:00.647Z,69.68
2017-10-31T05:05:01.251Z,69.97
2017-10-31T05:06:01.885Z,69.78
2017-10-31T05:07:02.495Z,69.78
2017-10-31T05:08:03.094Z,69.87
2017-10-31T05:09:03.700Z,69.78
2017-10-31T05:10:04.302Z,69.59
2017-10-31T05:11:04.907Z,69.78
2017-10-31T05:12:05.511Z,69.59
2017-10-31T05:13:06.114Z,69.49
2017-10-31T05:14:06.720Z,69.78
2017-10-31T05:15:07.323Z,69.68
2017-10-31T05:16:07.927Z,69.59
2017-10-31T05:17:08.533Z,69.78
2017-10-31T05:18:09.138Z,69.87
2017-10-31T05:19:09.742Z,69.12
2017-10-31T05:20:10.346Z,69.40
2017-10-31T05:21:10.955Z,69.31
2017-10-31T05:22:11.594Z,69.31
2017-10-31T05:23:12.199Z,69.21
2017-10-31T05:24:12.809Z,69.78
2017-10-31T05:25:13.406Z,69.59
2017-10-31T05:26:14.009Z,69.40
2017-10-31T05:27:14.612Z,69.40
2017-10-31T05:28:15.223Z,69.49
2017-10-31T05:29:15.821Z,69.31
2017-10-31T05:30:16.425Z,69.31
2017-10-31T05:31:17.032Z,69.49
2017-10-31T05:32:17.667Z,69.40
2017-10-31T05:33:18.270Z,69.40
2017-10-31T05:34:18.881Z,69.59
2017-10-31T05:35:19.488Z,69.97
2017-10-31T05:36:20.091Z,69.21
2017-10-31T05:37:20.702Z,69.21
2017-10-31T05:38:21.329Z,69.21
2017-10-31T05:39:21.933Z,69.40
2017-10-31T05:40:22.537Z,69.40
2017-10-31T05:41:23.146Z,69.49
2017-10-31T05:42:23.754Z,69.02
2017-10-31T05:43:24.353Z,69.40
2017-10-31T05:44:24.964Z,69.40
2017-10-31T05:45:25.569Z,69.40
2017-10-31T05:46:26.172Z,69.49
2017-10-31T05:47:26.781Z,69.59
2017-10-31T05:48:27.387Z,69.40
2017-10-31T05:49:27.993Z,69.40
2017-10-31T05:50:28.601Z,68.93
2017-10-31T05:51:29.236Z,69.12
2017-10-31T05:52:29.868Z,69.21
2017-10-31T05:53:30.473Z,68.93
2017-10-31T05:54:31.077Z,68.93
2017-10-31T05:55:31.680Z,69.02
2017-10-31T05:56:32.284Z,69.02
2017-10-31T05:57:32.894Z,68.84
2017-10-31T05:58:33.501Z,68.46
2017-10-31T05:59:34.100Z,68.46
2017-10-31T06:00:34.702Z,68.65
2017-10-31T06:01:35.305Z,68.93
2017-10-31T06:02:35.910Z,69.02
2017-10-31T06:03:36.516Z,69.02
2017-10-31T06:04:37.119Z,68.46
2017-10-31T06:05:37.726Z,68.46
2017-10-31T06:06:38.330Z,69.02
2017-10-31T06:07:38.952Z,68.55
2017-10-31T06:08:39.544Z,68.46
2017-10-31T06:09:40.146Z,68.55
2017-10-31T06:10:40.751Z,68.55
2017-10-31T06:11:41.353Z,68.46
2017-10-31T06:12:41.957Z,68.74
2017-10-31T06:13:42.567Z,68.55
2017-10-31T06:14:43.169Z,68.74
2017-10-31T06:15:43.775Z,68.65
2017-10-31T06:16:44.379Z,68.93
2017-10-31T06:17:44.989Z,68.55
2017-10-31T06:18:45.588Z,68.65
2017-10-31T06:19:46.194Z,68.17
2017-10-31T06:20:46.799Z,68.27
2017-10-31T06:21:47.432Z,68.27
2017-10-31T06:22:48.041Z,68.27
2017-10-31T06:23:48.648Z,68.36
2017-10-31T06:24:49.250Z,68.36
2017-10-31T06:25:49.861Z,67.89
2017-10-31T06:26:50.465Z,68.17
2017-10-31T06:27:51.068Z,68.36
2017-10-31T06:28:51.679Z,68.17
2017-10-31T06:29:52.281Z,68.17
2017-10-31T06:30:52.886Z,68.17
2017-10-31T06:31:53.493Z,68.74
2017-10-31T06:32:54.097Z,68.27
2017-10-31T06:33:54.703Z,68.08
2017-10-31T06:34:55.338Z,68.08
2017-10-31T06:35:55.942Z,68.46
2017-10-31T06:36:56.548Z,68.17
2017-10-31T06:37:57.152Z,68.08
2017-10-31T06:38:57.765Z,68.27
2017-10-31T06:39:58.371Z,68.27
2017-10-31T06:40:58.975Z,67.89
2017-10-31T06:41:59.611Z,68.17
2017-10-31T06:43:00.251Z,67.89
2017-10-31T06:44:00.854Z,68.08
2017-10-31T06:45:01.460Z,68.17
2017-10-31T06:46:02.064Z,67.98
2017-10-31T06:47:02.673Z,67.70
2017-10-31T06:48:03.276Z,67.79
2017-10-31T06:49:03.886Z,67.89
2017-10-31T06:50:04.487Z,68.08
2017-10-31T06:51:05.128Z,68.17
2017-10-31T06:52:05.727Z,68.08
2017-10-31T06:53:06.337Z,67.51
2017-10-31T06:54:06.939Z,67.51
2017-10-31T06:55:07.545Z,67.60
2017-10-31T06:56:08.152Z,66.66
2017-10-31T06:57:08.786Z,66.94
2017-10-31T06:58:09.397Z,66.66
2017-10-31T06:59:10.033Z,66.66
2017-10-31T07:00:10.661Z,66.28
2017-10-31T07:01:11.246Z,66.00
2017-10-31T07:02:11.852Z,66.09
2017-10-31T07:03:12.456Z,66.38
2017-10-31T07:04:13.098Z,66.38
2017-10-31T07:05:13.738Z,66.38
2017-10-31T07:06:14.346Z,66.00
2017-10-31T07:07:14.953Z,65.53
2017-10-31T07:08:15.555Z,66.00
2017-10-31T07:09:16.160Z,65.72
2017-10-31T07:10:16.763Z,66.00
2017-10-31T07:11:17.373Z,66.00
2017-10-31T07:12:17.977Z,65.81
2017-10-31T07:13:18.583Z,66.00
2017-10-31T07:14:19.193Z,65.53
2017-10-31T07:15:19.796Z,65.53
2017-10-31T07:16:20.402Z,65.62
2017-10-31T07:17:21.006Z,65.75
2017-10-31T07:18:21.610Z,65.24
2017-10-31T07:19:22.244Z,65.24
2017-10-31T07:20:22.878Z,64.99
2017-10-31T07:21:23.492Z,64.71
2017-10-31T07:22:24.090Z,64.90
2017-10-31T07:23:24.700Z,64.80
2017-10-31T07:24:25.299Z,64.80
2017-10-31T07:25:25.905Z,64.61
2017-10-31T07:26:26.539Z,64.80
2017-10-31T07:27:27.143Z,64.61
2017-10-31T07:28:27.750Z,64.42
2017-10-31T07:29:28.355Z,64.52
2017-10-31T07:30:28.961Z,64.61
2017-10-31T07:31:29.566Z,64.23
2017-10-31T07:32:30.173Z,64.42
2017-10-31T07:33:30.777Z,64.14
2017-10-31T07:34:31.384Z,63.76
2017-10-31T07:35:31.988Z,64.04
2017-10-31T07:36:32.624Z,63.85
2017-10-31T07:37:33.226Z,63.76
2017-10-31T07:38:33.833Z,63.76
2017-10-31T07:39:34.440Z,63.48
2017-10-31T07:40:35.044Z,63.39
2017-10-31T07:41:35.654Z,63.39
2017-10-31T07:42:36.262Z,63.39
2017-10-31T07:43:36.870Z,63.29
2017-10-31T07:44:37.474Z,63.01
2017-10-31T07:45:38.083Z,62.91
2017-10-31T07:46:38.686Z,63.10
2017-10-31T07:47:39.292Z,63.10
2017-10-31T07:48:39.909Z,62.72
2017-10-31T07:49:40.521Z,63.10
2017-10-31T07:50:41.124Z,62.91
2017-10-31T07:51:41.730Z,63.20
2017-10-31T07:52:42.339Z,62.91
2017-10-31T07:53:42.952Z,63.10
2017-10-31T07:54:43.557Z,63.10
2017-10-31T07:55:44.169Z,63.42
2017-10-31T07:56:44.805Z,63.23
2017-10-31T07:57:45.414Z,63.32
2017-10-31T07:58:46.028Z,63.70
2017-10-31T07:59:46.665Z,64.36
2017-10-31T08:00:47.275Z,64.26
2017-10-31T08:01:47.911Z,64.36
2017-10-31T08:02:48.519Z,64.68
2017-10-31T08:03:49.129Z,64.39
2017-10-31T08:04:49.734Z,64.30
2017-10-31T08:05:50.343Z,64.77
2017-10-31T08:06:50.952Z,64.68
2017-10-31T08:07:51.567Z,64.87
2017-10-31T08:08:52.173Z,64.39
2017-10-31T08:09:52.780Z,65.06
2017-10-31T08:10:53.393Z,64.49
2017-10-31T08:11:54.007Z,64.71
2017-10-31T08:12:54.617Z,65.00
2017-10-31T08:13:55.256Z,64.71
2017-10-31T08:14:55.864Z,64.71
2017-10-31T08:15:56.479Z,64.71
2017-10-31T08:16:57.090Z,64.81
2017-10-31T08:17:57.696Z,64.52
2017-10-31T08:18:58.311Z,64.14
2017-10-31T08:19:58.915Z,64.04
2017-10-31T08:20:59.525Z,64.61
2017-10-31T08:22:00.133Z,64.33
2017-10-31T08:23:00.747Z,65.00
2017-10-31T08:24:01.385Z,64.14
2017-10-31T08:25:02.022Z,64.61
2017-10-31T08:26:02.635Z,64.42
2017-10-31T08:27:03.244Z,64.36
2017-10-31T08:28:03.853Z,64.17
2017-10-31T08:29:04.467Z,64.17
2017-10-31T08:30:05.072Z,64.36
2017-10-31T08:31:05.707Z,64.14
2017-10-31T08:32:06.317Z,64.42
2017-10-31T08:33:06.926Z,64.52
2017-10-31T08:34:07.543Z,64.71
2017-10-31T08:35:08.183Z,64.81
2017-10-31T08:36:08.788Z,64.90
2017-10-31T08:37:09.399Z,64.42
2017-10-31T08:38:10.008Z,64.46
2017-10-31T08:39:10.618Z,64.74
2017-10-31T08:40:11.226Z,64.55
2017-10-31T08:41:11.841Z,64.93
2017-10-31T08:42:12.444Z,64.55
2017-10-31T08:43:13.054Z,64.55
2017-10-31T08:44:13.668Z,64.08
2017-10-31T08:45:14.280Z,64.46
2017-10-31T08:46:14.887Z,64.27
2017-10-31T08:47:15.495Z,64.27
2017-10-31T08:48:16.103Z,64.93
2017-10-31T08:49:16.719Z,64.59
2017-10-31T08:50:17.325Z,64.59
2017-10-31T08:51:17.938Z,63.73
2017-10-31T08:52:18.550Z,64.11
2017-10-31T08:53:19.152Z,64.11
2017-10-31T08:54:19.766Z,63.92
2017-10-31T08:55:20.375Z,63.82
2017-10-31T08:56:20.993Z,63.54
2017-10-31T08:57:21.597Z,63.54
2017-10-31T08:58:22.234Z,62.88
2017-10-31T08:59:22.856Z,62.78
2017-10-31T09:00:23.484Z,62.59
2017-10-31T09:01:24.093Z,62.69
2017-10-31T09:02:24.703Z,62.59
2017-10-31T09:03:25.316Z,63.07
2017-10-31T09:04:25.922Z,62.59
2017-10-31T09:05:26.536Z,62.59
2017-10-31T09:06:27.143Z,62.78
2017-10-31T09:07:27.752Z,62.21
2017-10-31T09:08:28.363Z,61.74
2017-10-31T09:09:28.973Z,61.65
2017-10-31T09:10:29.582Z,61.83
2017-10-31T09:11:30.193Z,61.96
2017-10-31T09:12:30.808Z,61.87
2017-10-31T09:13:31.414Z,61.77
2017-10-31T09:14:32.030Z,61.49
2017-10-31T09:15:32.636Z,61.39
2017-10-31T09:16:33.245Z,60.95
2017-10-31T09:17:33.884Z,60.85
2017-10-31T09:18:34.496Z,60.10
2017-10-31T09:19:35.106Z,59.81
2017-10-31T09:20:35.717Z,59.05
2017-10-31T09:21:36.332Z,58.39
2017-10-31T09:22:36.938Z,58.29
2017-10-31T09:23:37.546Z,58.58
2017-10-31T09:24:38.158Z,59.24
2017-10-31T09:25:38.769Z,58.95
2017-10-31T09:26:39.379Z,58.80
2017-10-31T09:27:39.990Z,58.70
2017-10-31T09:28:40.598Z,58.03
2017-10-31T09:29:41.209Z,57.94
2017-10-31T09:30:41.821Z,57.28
2017-10-31T09:31:42.430Z,56.89
2017-10-31T09:32:43.046Z,57.18
2017-10-31T09:33:43.695Z,57.28
2017-10-31T09:34:44.302Z,56.45
2017-10-31T09:35:44.921Z,56.26
2017-10-31T09:36:45.527Z,56.35
2017-10-31T09:37:46.165Z,56.35
2017-10-31T09:38:46.778Z,56.45
2017-10-31T09:39:47.393Z,56.26
2017-10-31T09:40:48.005Z,56.35
2017-10-31T09:41:48.616Z,56.48
2017-10-31T09:42:49.233Z,56.00
2017-10-31T09:43:49.843Z,56.00
2017-10-31T09:44:50.455Z,55.43
2017-10-31T09:45:51.066Z,55.52
2017-10-31T09:46:51.678Z,55.24
2017-10-31T09:47:52.290Z,54.77
2017-10-31T09:48:52.940Z,54.57
2017-10-31T09:49:53.548Z,54.48
2017-10-31T09:50:54.190Z,54.48
2017-10-31T09:51:54.809Z,54.29
2017-10-31T09:52:55.418Z,53.81
2017-10-31T09:53:56.030Z,53.91
2017-10-31T09:54:56.649Z,54.10
2017-10-31T09:55:57.254Z,53.81
2017-10-31T09:56:57.867Z,54.00
2017-10-31T09:57:58.484Z,53.91
2017-10-31T09:58:59.094Z,53.84
2017-10-31T09:59:59.706Z,54.41
2017-10-31T10:01:00.317Z,53.36
2017-10-31T10:02:00.929Z,53.94
2017-10-31T10:03:01.547Z,53.46
2017-10-31T10:04:02.159Z,52.89
2017-10-31T10:05:02.802Z,52.61
2017-10-31T10:06:03.419Z,52.92
2017-10-31T10:07:04.034Z,52.25
2017-10-31T10:08:04.642Z,52.15
2017-10-31T10:09:05.253Z,52.82
2017-10-31T10:10:05.871Z,52.44
2017-10-31T10:11:06.514Z,52.34
2017-10-31T10:12:07.126Z,52.06
2017-10-31T10:13:07.742Z,52.15
2017-10-31T10:14:08.350Z,51.87
2017-10-31T10:15:08.963Z,51.10
2017-10-31T10:16:09.578Z,50.35
2017-10-31T10:17:10.192Z,50.25
2017-10-31T10:18:10.805Z,50.54
2017-10-31T10:19:11.420Z,50.54
2017-10-31T10:20:12.035Z,50.73
2017-10-31T10:21:12.651Z,50.73
2017-10-31T10:22:13.293Z,50.73
2017-10-31T10:23:13.907Z,50.44
2017-10-31T10:24:14.519Z,50.44
2017-10-31T10:25:15.167Z,50.06
2017-10-31T10:26:15.788Z,49.77
2017-10-31T10:27:16.392Z,49.58
2017-10-31T10:28:17.009Z,50.06
2017-10-31T10:29:17.629Z,50.06
2017-10-31T10:30:18.243Z,49.90
2017-10-31T10:31:18.856Z,49.42
2017-10-31T10:32:19.471Z,49.13
2017-10-31T10:33:20.088Z,48.66
2017-10-31T10:34:20.704Z,48.75
2017-10-31T10:35:21.348Z,48.37
2017-10-31T10:36:21.966Z,48.18
2017-10-31T10:37:22.608Z,49.13
2017-10-31T10:38:23.224Z,49.04
2017-10-31T10:39:23.844Z,49.16
2017-10-31T10:40:24.458Z,48.49
2017-10-31T10:41:25.075Z,48.68
2017-10-31T10:42:25.694Z,47.63
2017-10-31T10:43:26.311Z,47.82
2017-10-31T10:44:26.925Z,47.82
2017-10-31T10:45:27.540Z,47.54
2017-10-31T10:46:28.156Z,46.68
2017-10-31T10:47:28.778Z,46.78
2017-10-31T10:48:29.391Z,46.49
2017-10-31T10:49:30.010Z,45.73
2017-10-31T10:50:30.627Z,45.15
2017-10-31T10:51:31.240Z,45.15
2017-10-31T10:52:31.888Z,45.83
2017-10-31T10:53:32.504Z,45.73
2017-10-31T10:54:33.119Z,45.73
2017-10-31T10:55:33.739Z,45.75
2017-10-31T10:56:34.355Z,44.99
2017-10-31T10:57:34.977Z,44.99
2017-10-31T10:58:35.621Z,44.70
2017-10-31T10:59:36.242Z,45.08
2017-10-31T11:00:36.853Z,44.60
2017-10-31T11:01:37.471Z,44.99
2017-10-31T11:02:38.087Z,44.89
2017-10-31T11:03:38.704Z,44.70
2017-10-31T11:04:39.319Z,43.84
2017-10-31T11:05:39.934Z,43.77
2017-10-31T11:06:40.550Z,42.13
2017-10-31T11:07:41.168Z,42.41
2017-10-31T11:08:41.785Z,41.94
2017-10-31T11:09:42.431Z,41.27
2017-10-31T11:10:43.048Z,41.84
2017-10-31T11:11:43.662Z,41.27
2017-10-31T11:12:44.282Z,41.84
2017-10-31T11:13:44.934Z,41.84
2017-10-31T11:14:45.548Z,41.75
2017-10-31T11:15:46.162Z,40.41
2017-10-31T11:16:46.779Z,38.60
2017-10-31T11:17:47.428Z,39.17
2017-10-31T11:18:48.042Z,40.12
2017-10-31T11:19:48.658Z,40.60
2017-10-31T11:20:49.273Z,40.60
2017-10-31T11:21:49.896Z,40.32
2017-10-31T11:22:50.512Z,39.58
2017-10-31T11:23:51.127Z,39.67
2017-10-31T11:24:51.742Z,39.19
2017-10-31T11:25:52.361Z,39.00
2017-10-31T11:26:52.983Z,39.00
2017-10-31T11:27:53.601Z,39.95
2017-10-31T11:28:54.213Z,38.91
2017-10-31T11:29:54.832Z,38.15
2017-10-31T11:30:55.454Z,37.95
2017-10-31T11:31:56.076Z,38.34
2017-10-31T11:32:56.719Z,38.91
2017-10-31T11:33:57.336Z,38.53
2017-10-31T11:34:57.950Z,38.62
2017-10-31T11:35:58.572Z,39.10
2017-10-31T11:36:59.192Z,39.67
2017-10-31T11:37:59.806Z,38.91
2017-10-31T11:39:00.422Z,38.81
2017-10-31T11:40:01.042Z,38.71
2017-10-31T11:41:01.657Z,38.70
2017-10-31T11:42:02.310Z,38.89
2017-10-31T11:43:02.924Z,38.98
2017-10-31T11:44:03.571Z,39.08
2017-10-31T11:45:04.186Z,38.98
2017-10-31T11:46:04.803Z,38.89
2017-10-31T11:47:05.423Z,38.60
2017-10-31T11:48:06.038Z,38.79
2017-10-31T11:49:06.654Z,39.56
2017-10-31T11:50:07.271Z,39.39
2017-10-31T11:51:07.892Z,39.19
2017-10-31T11:52:08.504Z,39.95
2017-10-31T11:53:09.123Z,39.76
2017-10-31T11:54:09.737Z,39.58
2017-10-31T11:55:10.356Z,39.78
2017-10-31T11:56:10.972Z,39.22
2017-10-31T11:57:11.585Z,38.83
2017-10-31T11:58:12.205Z,38.26
2017-10-31T11:59:12.827Z,38.54
2017-10-31T12:00:13.446Z,38.54
2017-10-31T12:01:14.060Z,38.83
2017-10-31T12:02:14.684Z,38.64
2017-10-31T12:03:15.306Z,38.17
2017-10-31T12:04:15.920Z,38.15
2017-10-31T12:05:16.541Z,37.95
2017-10-31T12:06:17.161Z,38.24
2017-10-31T12:07:17.794Z,38.91
2017-10-31T12:08:18.394Z,38.71
2017-10-31T12:09:19.017Z,38.71
2017-10-31T12:10:19.633Z,39.00
2017-10-31T12:11:20.256Z,38.71
2017-10-31T12:12:20.873Z,38.43
2017-10-31T12:13:21.491Z,38.81
2017-10-31T12:14:22.107Z,38.62
2017-10-31T12:15:22.723Z,39.10
2017-10-31T12:16:23.339Z,38.91
2017-10-31T12:17:23.963Z,38.54
2017-10-31T12:18:24.575Z,38.24
2017-10-31T12:19:25.194Z,38.17
2017-10-31T12:20:25.813Z,38.35
2017-10-31T12:21:26.429Z,38.26
2017-10-31T12:22:27.045Z,38.54
2017-10-31T12:23:27.660Z,37.97
2017-10-31T12:24:28.276Z,36.92
2017-10-31T12:25:28.896Z,37.12
2017-10-31T12:26:29.518Z,37.23
2017-10-31T12:27:30.134Z,36.35
2017-10-31T12:28:30.756Z,36.56
2017-10-31T12:29:31.370Z,36.46
2017-10-31T12:30:32.019Z,36.27
2017-10-31T12:31:32.636Z,36.27
2017-10-31T12:32:33.286Z,36.18
2017-10-31T12:33:33.903Z,35.60
2017-10-31T12:34:34.529Z,34.94
2017-10-31T12:35:35.140Z,34.82
2017-10-31T12:36:35.787Z,35.30
2017-10-31T12:37:36.404Z,35.21
2017-10-31T12:38:37.021Z,35.30
2017-10-31T12:39:37.670Z,36.07
2017-10-31T12:40:38.285Z,36.16
2017-10-31T12:41:38.941Z,36.16
2017-10-31T12:42:39.556Z,35.68
2017-10-31T12:43:40.172Z,35.49
2017-10-31T12:44:40.790Z,35.39
2017-10-31T12:45:41.409Z,35.59
2017-10-31T12:46:42.034Z,36.35
2017-10-31T12:47:42.680Z,36.27
2017-10-31T12:48:43.299Z,36.37
2017-10-31T12:49:43.914Z,36.18
2017-10-31T12:50:44.530Z,35.62
2017-10-31T12:51:45.148Z,35.33
2017-10-31T12:52:45.770Z,35.05
2017-10-31T12:53:46.384Z,35.33
2017-10-31T12:54:47.002Z,34.28
2017-10-31T12:55:47.620Z,34.28
2017-10-31T12:56:48.252Z,34.78
2017-10-31T12:57:48.869Z,34.78
2017-10-31T12:58:49.496Z,33.54
2017-10-31T12:59:50.117Z,33.73
2017-10-31T13:00:50.734Z,33.73